createdAt,value
2018-07-24T00:00:11.143Z,5.67
2018-07-24T00:02:40.108Z,5.63
2018-07-24T00:05:08.990Z,5.43
2018-07-24T00:07:37.936Z,6.00
2018-07-24T00:10:06.846Z,5.80
2018-07-24T00:12:35.836Z,5.97
2018-07-24T00:15:06.770Z,5.73
2018-07-24T00:17:35.942Z,5.83
2018-07-24T00:20:05.487Z,5.60
2018-07-24T00:22:34.620Z,5.10
2018-07-24T00:25:03.674Z,5.40
2018-07-24T00:27:32.610Z,5.73
2018-07-24T00:30:01.527Z,7.00
2018-07-24T00:32:30.520Z,6.10
2018-07-24T00:34:59.472Z,6.47
2018-07-24T00:37:28.360Z,6.33
2018-07-24T00:39:57.541Z,5.40
2018-07-24T00:42:26.449Z,6.37
2018-07-24T00:44:55.321Z,6.00
2018-07-24T00:47:24.310Z,6.37
2018-07-24T00:49:53.250Z,6.87
2018-07-24T00:52:22.166Z,5.90
2018-07-24T00:54:51.068Z,6.03
2018-07-24T00:57:20.030Z,6.50
2018-07-24T00:59:48.989Z,6.50
2018-07-24T01:02:17.886Z,6.40
2018-07-24T01:04:46.794Z,6.57
2018-07-24T01:07:15.837Z,6.20
2018-07-24T01:09:45.027Z,6.77
2018-07-24T01:12:13.959Z,6.23
2018-07-24T01:14:42.856Z,6.60
2018-07-24T01:17:11.756Z,6.37
2018-07-24T01:19:40.753Z,6.10
2018-07-24T01:22:09.687Z,6.23
2018-07-24T01:24:41.028Z,6.37
2018-07-24T01:27:10.150Z,6.50
2018-07-24T01:29:39.026Z,6.30
2018-07-24T01:32:08.082Z,6.30
2018-07-24T01:34:36.993Z,6.20
2018-07-24T01:37:05.985Z,6.53
2018-07-24T01:39:34.867Z,6.37
2018-07-24T01:42:03.773Z,6.10
2018-07-24T01:44:32.740Z,6.60
2018-07-24T01:47:01.661Z,6.23
2018-07-24T01:49:30.653Z,6.80
2018-07-24T01:51:59.670Z,6.57
2018-07-24T01:54:28.564Z,7.17
2018-07-24T01:56:57.760Z,6.73
2018-07-24T01:59:27.151Z,6.83
2018-07-24T02:01:56.056Z,6.37
2018-07-24T02:04:24.987Z,7.13
2018-07-24T02:06:53.853Z,6.77
2018-07-24T02:09:22.755Z,6.93
2018-07-24T02:11:51.663Z,6.57
2018-07-24T02:14:20.558Z,7.03
2018-07-24T02:16:49.488Z,7.50
2018-07-24T02:19:18.459Z,6.63
2018-07-24T02:21:47.408Z,7.63
2018-07-24T02:24:16.283Z,7.63
2018-07-24T02:26:45.313Z,7.30
2018-07-24T02:29:14.198Z,7.87
2018-07-24T02:31:43.125Z,8.40
2018-07-24T02:34:12.005Z,8.00
2018-07-24T02:36:40.927Z,8.17
2018-07-24T02:39:12.342Z,7.70
2018-07-24T02:41:41.259Z,7.80
2018-07-24T02:44:10.526Z,8.90
2018-07-24T02:46:39.525Z,7.80
2018-07-24T02:49:08.428Z,7.13
2018-07-24T02:51:37.397Z,8.47
2018-07-24T02:54:06.459Z,7.77
2018-07-24T02:56:35.486Z,7.70
2018-07-24T02:59:05.423Z,8.13
2018-07-24T03:01:34.355Z,8.10
2018-07-24T03:04:03.262Z,8.00
2018-07-24T03:06:32.177Z,8.23
2018-07-24T03:09:01.090Z,7.67
2018-07-24T03:11:30.065Z,8.53
2018-07-24T03:13:58.992Z,8.73
2018-07-24T03:16:28.036Z,7.43
2018-07-24T03:18:56.939Z,7.80
2018-07-24T03:21:25.839Z,7.97
2018-07-24T03:23:54.717Z,8.40
2018-07-24T03:26:23.664Z,7.93
2018-07-24T03:28:52.562Z,7.77
2018-07-24T03:31:21.443Z,9.07
2018-07-24T03:33:50.411Z,9.50
2018-07-24T03:36:19.321Z,9.57
2018-07-24T03:38:48.233Z,9.10
2018-07-24T03:41:17.236Z,8.90
2018-07-24T03:43:46.210Z,9.17
2018-07-24T03:46:15.211Z,9.97
2018-07-24T03:48:44.123Z,9.77
2018-07-24T03:51:13.125Z,8.93
2018-07-24T03:53:42.032Z,9.43
2018-07-24T03:56:11.034Z,8.77
2018-07-24T03:58:39.983Z,9.73
2018-07-24T04:01:09.005Z,9.60
2018-07-24T04:03:37.924Z,9.20
2018-07-24T04:06:06.901Z,9.60
2018-07-24T04:08:35.807Z,9.77
2018-07-24T04:11:04.777Z,9.77
2018-07-24T04:13:33.663Z,9.30
2018-07-24T04:16:02.661Z,10.33
2018-07-24T04:18:38.519Z,9.03
2018-07-24T04:21:07.459Z,8.90
2018-07-24T04:23:36.439Z,10.40
2018-07-24T04:26:05.350Z,9.83
2018-07-24T04:28:34.314Z,9.30
2018-07-24T04:31:03.469Z,9.87
2018-07-24T04:33:32.323Z,10.57
2018-07-24T04:36:01.592Z,10.00
2018-07-24T04:38:30.495Z,9.53
2018-07-24T04:40:59.427Z,9.50
2018-07-24T04:43:28.352Z,9.50
2018-07-24T04:46:02.298Z,8.70
2018-07-24T04:48:31.458Z,8.67
2018-07-24T04:51:00.407Z,9.40
2018-07-24T04:53:29.350Z,8.60
2018-07-24T04:55:58.396Z,9.20
2018-07-24T04:58:27.485Z,8.60
2018-07-24T05:00:56.381Z,8.97
2018-07-24T05:03:25.302Z,7.93
2018-07-24T05:05:54.200Z,8.53
2018-07-24T05:08:23.104Z,8.40
2018-07-24T05:10:52.137Z,8.97
2018-07-24T05:13:21.102Z,7.97
2018-07-24T05:15:50.080Z,8.30
2018-07-24T05:18:19.010Z,8.27
2018-07-24T05:20:47.949Z,9.00
2018-07-24T05:23:16.886Z,9.43
2018-07-24T05:25:45.888Z,8.77
2018-07-24T05:28:14.772Z,9.77
2018-07-24T05:30:43.717Z,9.33
2018-07-24T05:33:12.703Z,8.57
2018-07-24T05:35:41.548Z,8.97
2018-07-24T05:38:10.476Z,9.70
2018-07-24T05:40:39.429Z,8.60
2018-07-24T05:43:08.317Z,9.07
2018-07-24T05:45:37.396Z,9.03
2018-07-24T05:48:06.308Z,9.00
2018-07-24T05:50:35.231Z,8.23
2018-07-24T05:53:04.159Z,9.70
2018-07-24T05:55:33.151Z,9.93
2018-07-24T05:58:02.068Z,8.57
2018-07-24T06:00:31.044Z,9.47
2018-07-24T06:03:00.053Z,8.87
2018-07-24T06:05:29.004Z,7.93
2018-07-24T06:07:57.976Z,9.27
2018-07-24T06:10:26.911Z,8.97
2018-07-24T06:12:55.852Z,9.13
2018-07-24T06:15:24.788Z,8.60
2018-07-24T06:17:53.752Z,9.37
2018-07-24T06:20:22.920Z,8.60
2018-07-24T06:22:51.816Z,8.50
2018-07-24T06:25:20.738Z,9.83
2018-07-24T06:27:49.691Z,9.93
2018-07-24T06:30:18.630Z,10.40
2018-07-24T06:32:47.552Z,10.13
2018-07-24T06:35:16.468Z,10.67
2018-07-24T06:37:45.434Z,11.73
2018-07-24T06:40:14.326Z,11.43
2018-07-24T06:42:43.266Z,13.57
2018-07-24T06:45:12.264Z,14.07
2018-07-24T06:47:41.203Z,12.63
2018-07-24T06:50:10.224Z,12.13
2018-07-24T06:52:39.147Z,12.77
2018-07-24T06:55:08.068Z,14.27
2018-07-24T06:57:37.040Z,11.93
2018-07-24T07:00:06.184Z,12.43
2018-07-24T07:02:35.134Z,11.80
2018-07-24T07:05:04.127Z,11.47
2018-07-24T07:07:33.032Z,12.27
2018-07-24T07:10:02.016Z,10.27
2018-07-24T07:12:30.997Z,9.63
2018-07-24T07:15:00.023Z,9.63
2018-07-24T07:17:29.057Z,8.90
2018-07-24T07:19:58.132Z,10.07
2018-07-24T07:22:27.105Z,10.23
2018-07-24T07:24:56.107Z,9.90
2018-07-24T07:27:25.065Z,10.30
2018-07-24T07:29:54.057Z,9.40
2018-07-24T07:32:23.043Z,10.23
2018-07-24T07:34:51.950Z,10.57
2018-07-24T07:37:20.943Z,10.50
2018-07-24T07:39:49.892Z,10.43
2018-07-24T07:42:18.859Z,10.30
2018-07-24T07:44:47.757Z,9.83
2018-07-24T07:47:16.649Z,10.37
2018-07-24T07:49:45.557Z,10.00
2018-07-24T07:52:14.527Z,11.07
2018-07-24T07:54:43.513Z,10.33
2018-07-24T07:57:12.481Z,10.43
2018-07-24T07:59:41.440Z,10.03
2018-07-24T08:02:10.508Z,8.90
2018-07-24T08:04:39.439Z,10.57
2018-07-24T08:07:08.417Z,10.10
2018-07-24T08:09:37.412Z,11.07
2018-07-24T08:12:06.340Z,9.27
2018-07-24T08:14:35.232Z,8.80
2018-07-24T08:17:04.269Z,7.77
2018-07-24T08:19:33.172Z,10.20
2018-07-24T08:22:02.254Z,9.63
2018-07-24T08:24:31.278Z,9.87
2018-07-24T08:27:00.159Z,9.40
2018-07-24T08:29:29.158Z,8.30
2018-07-24T08:31:58.024Z,9.67
2018-07-24T08:34:27.227Z,8.70
2018-07-24T08:36:56.168Z,8.47
2018-07-24T08:39:25.139Z,8.97
2018-07-24T08:41:54.142Z,9.10
2018-07-24T08:44:23.068Z,8.40
2018-07-24T08:46:51.977Z,8.23
2018-07-24T08:49:20.858Z,6.60
2018-07-24T08:51:49.772Z,7.03
2018-07-24T08:54:18.943Z,7.50
2018-07-24T08:56:47.684Z,6.77
2018-07-24T08:59:16.610Z,8.33
2018-07-24T09:04:47.970Z,7.00
2018-07-24T09:07:16.853Z,7.03
2018-07-24T09:09:45.741Z,6.40
2018-07-24T09:12:14.705Z,7.10
2018-07-24T09:14:43.636Z,7.00
2018-07-24T09:17:12.542Z,7.70
2018-07-24T09:19:41.490Z,8.40
2018-07-24T09:22:10.376Z,8.83
2018-07-24T09:24:39.294Z,6.90
2018-07-24T09:27:08.246Z,7.57
2018-07-24T09:29:37.330Z,8.50
2018-07-24T09:32:06.287Z,7.10
2018-07-24T09:34:35.207Z,6.77
2018-07-24T09:37:04.144Z,7.07
2018-07-24T09:39:33.071Z,7.13
2018-07-24T09:42:02.040Z,8.07
2018-07-24T09:44:30.916Z,7.90
2018-07-24T09:46:59.963Z,7.60
2018-07-24T09:49:28.931Z,7.37
2018-07-24T09:51:57.894Z,7.80
2018-07-24T09:54:26.918Z,8.10
2018-07-24T09:56:55.820Z,7.60
2018-07-24T09:59:24.758Z,6.70
2018-07-24T10:01:53.566Z,7.50
2018-07-24T10:04:22.552Z,8.67
2018-07-24T10:06:51.438Z,7.90
2018-07-24T10:09:20.318Z,8.97
2018-07-24T10:11:49.236Z,7.90
2018-07-24T10:14:18.114Z,10.30
2018-07-24T10:16:47.833Z,12.07
2018-07-24T10:19:16.712Z,9.70
2018-07-24T10:21:45.582Z,8.53
2018-07-24T10:24:14.489Z,10.17
2018-07-24T10:26:43.378Z,8.80
2018-07-24T10:29:12.290Z,8.97
2018-07-24T10:31:41.252Z,10.13
2018-07-24T10:34:10.137Z,10.63
2018-07-24T10:36:39.041Z,10.97
2018-07-24T10:39:09.873Z,10.47
2018-07-24T10:41:38.815Z,10.50
2018-07-24T10:44:07.908Z,12.37
2018-07-24T10:46:37.606Z,12.97
2018-07-24T10:49:07.191Z,10.90
2018-07-24T10:51:36.109Z,10.43
2018-07-24T10:54:04.981Z,10.30
2018-07-24T10:56:34.270Z,9.87
2018-07-24T10:59:03.392Z,9.30
2018-07-24T11:01:32.284Z,10.33
2018-07-24T11:04:01.160Z,9.27
2018-07-24T11:06:30.055Z,8.63
2018-07-24T11:08:58.963Z,6.77
2018-07-24T11:11:27.931Z,6.40
2018-07-24T11:13:56.847Z,6.23
2018-07-24T11:16:25.719Z,5.57
2018-07-24T11:18:54.606Z,4.50
2018-07-24T11:21:29.219Z,4.40
2018-07-24T11:23:58.136Z,4.30
2018-07-24T11:26:27.024Z,4.97
2018-07-24T11:28:55.922Z,5.60
2018-07-24T11:31:24.789Z,5.57
2018-07-24T11:33:53.655Z,6.00
2018-07-24T11:36:22.620Z,7.47
2018-07-24T11:38:51.466Z,6.50
2018-07-24T11:41:20.346Z,5.87
2018-07-24T11:43:49.269Z,5.73
2018-07-24T11:46:18.348Z,5.60
2018-07-24T11:48:47.232Z,5.13
2018-07-24T11:51:16.131Z,6.60
2018-07-24T11:53:45.068Z,5.93
2018-07-24T11:56:13.990Z,5.50
2018-07-24T11:58:42.940Z,6.43
2018-07-24T12:01:11.815Z,5.17
2018-07-24T12:03:40.705Z,5.43
2018-07-24T12:06:09.607Z,5.03
2018-07-24T12:08:38.769Z,4.93
2018-07-24T12:11:07.640Z,4.13
2018-07-24T12:13:36.490Z,4.60
2018-07-24T12:16:05.537Z,5.07
2018-07-24T12:18:34.424Z,5.60
2018-07-24T12:21:03.340Z,5.30
2018-07-24T12:23:32.232Z,5.13
2018-07-24T12:26:01.217Z,5.50
2018-07-24T12:28:30.076Z,5.17
2018-07-24T12:30:58.924Z,5.00
2018-07-24T12:33:28.383Z,4.97
2018-07-24T12:35:57.294Z,5.00
2018-07-24T12:38:26.166Z,5.83
2018-07-24T12:40:55.217Z,5.37
2018-07-24T12:43:24.148Z,5.60
2018-07-24T12:45:52.960Z,5.33
2018-07-24T12:48:21.839Z,5.70
2018-07-24T12:50:50.768Z,5.47
2018-07-24T12:53:19.714Z,6.07
2018-07-24T12:55:48.575Z,4.80
2018-07-24T12:58:17.438Z,4.57
2018-07-24T13:00:46.403Z,5.10
2018-07-24T13:03:15.280Z,5.00
2018-07-24T13:05:44.176Z,4.73
2018-07-24T13:08:13.074Z,4.50
2018-07-24T13:10:42.032Z,5.50
2018-07-24T13:13:10.903Z,5.47
2018-07-24T13:15:39.789Z,5.20
2018-07-24T13:18:08.695Z,5.43
2018-07-24T13:20:37.602Z,4.50
2018-07-24T13:23:07.335Z,5.20
2018-07-24T13:25:36.295Z,4.80
2018-07-24T13:28:05.240Z,4.67
2018-07-24T13:30:34.127Z,5.53
2018-07-24T13:33:03.048Z,4.63
2018-07-24T13:35:31.891Z,5.37
2018-07-24T13:38:00.788Z,4.93
2018-07-24T13:40:29.857Z,4.60
2018-07-24T13:42:58.780Z,5.03
2018-07-24T13:45:27.695Z,4.70
2018-07-24T13:48:01.024Z,4.30
2018-07-24T13:50:29.864Z,4.73
2018-07-24T13:52:58.935Z,5.03
2018-07-24T13:55:27.834Z,4.63
2018-07-24T13:57:57.032Z,4.87
2018-07-24T14:00:26.043Z,5.10
2018-07-24T14:02:55.302Z,5.00
2018-07-24T14:05:24.296Z,4.90
2018-07-24T14:07:53.136Z,4.60
2018-07-24T14:10:22.113Z,4.63
2018-07-24T14:12:51.042Z,4.60
2018-07-24T14:15:19.928Z,4.60
2018-07-24T14:17:49.084Z,4.73
2018-07-24T14:20:18.304Z,3.80
2018-07-24T14:22:48.320Z,4.47
2018-07-24T14:25:17.201Z,3.80
2018-07-24T14:27:46.197Z,4.47
2018-07-24T14:30:15.272Z,4.30
2018-07-24T14:32:44.199Z,3.73
2018-07-24T14:35:13.251Z,4.50
2018-07-24T14:37:42.299Z,4.17
2018-07-24T14:40:11.285Z,3.80
2018-07-24T14:42:40.235Z,3.73
2018-07-24T14:45:09.181Z,3.90
2018-07-24T14:47:38.075Z,3.87
2018-07-24T14:50:06.977Z,4.00
2018-07-24T14:52:35.989Z,4.27
2018-07-24T14:55:04.863Z,3.63
2018-07-24T14:57:33.906Z,3.70
2018-07-24T15:00:02.940Z,3.47
2018-07-24T15:02:31.966Z,3.90
2018-07-24T15:05:00.883Z,3.80
2018-07-24T15:07:29.841Z,3.30
2018-07-24T15:09:58.842Z,3.30
2018-07-24T15:12:27.767Z,3.67
2018-07-24T15:14:56.776Z,3.53
2018-07-24T15:17:25.805Z,3.37
2018-07-24T15:19:54.851Z,3.90
2018-07-24T15:22:23.737Z,3.40
2018-07-24T15:24:52.633Z,3.13
2018-07-24T15:27:21.572Z,3.50
2018-07-24T15:29:50.448Z,3.40
2018-07-24T15:32:19.425Z,3.50
2018-07-24T15:34:48.368Z,3.83
2018-07-24T15:37:17.869Z,4.00
2018-07-24T15:39:47.018Z,3.57
2018-07-24T15:42:16.121Z,3.60
2018-07-24T15:44:45.020Z,3.50
2018-07-24T15:47:14.004Z,3.07
2018-07-24T15:49:42.980Z,3.37
2018-07-24T15:52:11.910Z,3.17
2018-07-24T15:54:40.792Z,3.03
2018-07-24T15:57:09.779Z,3.23
2018-07-24T15:59:38.646Z,3.07
2018-07-24T16:02:08.113Z,3.43
2018-07-24T16:04:37.136Z,3.33
2018-07-24T16:07:06.269Z,3.13
2018-07-24T16:09:35.152Z,3.20
2018-07-24T16:12:04.147Z,2.90
2018-07-24T16:14:33.088Z,3.30
2018-07-24T16:17:01.968Z,2.77
2018-07-24T16:19:30.894Z,2.87
2018-07-24T16:21:59.869Z,3.13
2018-07-24T16:24:28.810Z,3.20
2018-07-24T16:26:57.716Z,2.83
2018-07-24T16:29:26.631Z,3.00
2018-07-24T16:31:56.614Z,3.50
2018-07-24T16:34:25.690Z,3.13
2018-07-24T16:36:54.757Z,2.93
2018-07-24T16:39:23.611Z,2.70
2018-07-24T16:41:52.579Z,3.23
2018-07-24T16:44:21.804Z,3.03
2018-07-24T16:46:50.718Z,3.20
2018-07-24T16:49:19.600Z,2.90
2018-07-24T16:51:48.705Z,3.40
2018-07-24T16:54:17.586Z,2.70
2018-07-24T16:56:46.526Z,3.13
2018-07-24T16:59:15.527Z,2.53
2018-07-24T17:01:44.507Z,3.13
2018-07-24T17:04:14.427Z,2.80
2018-07-24T17:06:43.311Z,2.67
2018-07-24T17:09:12.920Z,3.10
2018-07-24T17:11:42.034Z,2.60
2018-07-24T17:14:10.930Z,2.80
2018-07-24T17:16:39.853Z,2.50
2018-07-24T17:19:08.768Z,2.60
2018-07-24T17:21:37.777Z,2.73
2018-07-24T17:24:06.691Z,2.77
2018-07-24T17:26:35.716Z,2.70
2018-07-24T17:29:04.549Z,3.13
2018-07-24T17:31:33.452Z,3.30
2018-07-24T17:34:09.618Z,2.77
2018-07-24T17:36:38.493Z,2.50
2018-07-24T17:39:08.686Z,3.10
2018-07-24T17:41:37.703Z,3.00
2018-07-24T17:44:07.001Z,2.43
2018-07-24T17:46:36.028Z,2.90
2018-07-24T17:49:05.272Z,2.40
2018-07-24T17:51:34.235Z,2.83
2018-07-24T17:54:03.154Z,3.27
2018-07-24T17:56:32.054Z,2.80
2018-07-24T17:59:01.037Z,2.90
2018-07-24T18:01:29.947Z,2.80
2018-07-24T18:03:58.868Z,2.67
2018-07-24T18:06:27.769Z,2.80
2018-07-24T18:08:56.759Z,2.60
2018-07-24T18:11:25.723Z,3.23
2018-07-24T18:13:54.619Z,3.30
2018-07-24T18:16:23.774Z,3.30
2018-07-24T18:18:52.719Z,3.17
2018-07-24T18:21:21.640Z,2.70
2018-07-24T18:23:50.511Z,3.47
2018-07-24T18:26:19.542Z,2.83
2018-07-24T18:28:48.413Z,2.87
2018-07-24T18:31:17.285Z,2.60
2018-07-24T18:33:46.299Z,3.07
2018-07-24T18:36:15.193Z,3.17
2018-07-24T18:38:44.169Z,2.63
2018-07-24T18:41:13.044Z,2.90
2018-07-24T18:43:41.940Z,2.87
2018-07-24T18:46:10.857Z,2.87
2018-07-24T18:48:39.782Z,2.93
2018-07-24T18:51:08.722Z,3.10
2018-07-24T18:53:37.596Z,3.10
2018-07-24T18:56:06.510Z,3.40
2018-07-24T18:58:36.258Z,2.67
2018-07-24T19:01:05.302Z,2.77
2018-07-24T19:03:34.194Z,3.33
2018-07-24T19:06:03.168Z,3.37
2018-07-24T19:08:32.052Z,3.30
2018-07-24T19:11:00.966Z,2.93
2018-07-24T19:13:29.862Z,2.87
2018-07-24T19:15:58.732Z,2.77
2018-07-24T19:18:27.716Z,3.50
2018-07-24T19:20:56.585Z,2.73
2018-07-24T19:23:25.486Z,2.47
2018-07-24T19:25:54.519Z,3.37
2018-07-24T19:28:23.424Z,2.70
2018-07-24T19:30:52.432Z,3.10
2018-07-24T19:33:21.386Z,2.93
2018-07-24T19:35:50.264Z,2.87
2018-07-24T19:38:19.241Z,2.93
2018-07-24T19:40:48.223Z,3.13
2018-07-24T19:43:17.240Z,3.30
2018-07-24T19:45:46.118Z,3.30
2018-07-24T19:48:14.992Z,2.73
2018-07-24T19:50:43.966Z,3.87
2018-07-24T19:53:12.911Z,3.57
2018-07-24T19:55:41.786Z,3.20
2018-07-24T19:58:10.726Z,3.03
2018-07-24T20:00:39.662Z,3.30
2018-07-24T20:03:08.721Z,3.30
2018-07-24T20:05:37.664Z,3.37
2018-07-24T20:08:06.712Z,3.47
2018-07-24T20:10:35.672Z,3.40
2018-07-24T20:13:04.560Z,3.87
2018-07-24T20:15:33.613Z,3.60
2018-07-24T20:18:03.592Z,3.37
2018-07-24T20:20:32.534Z,4.00
2018-07-24T20:23:01.557Z,4.07
2018-07-24T20:25:30.586Z,2.97
2018-07-24T20:27:59.570Z,3.60
2018-07-24T20:30:28.756Z,3.40
2018-07-24T20:32:57.696Z,3.53
2018-07-24T20:35:26.727Z,3.63
2018-07-24T20:37:55.626Z,3.70
2018-07-24T20:40:24.573Z,3.53
2018-07-24T20:42:53.686Z,3.57
2018-07-24T20:45:22.674Z,3.73
2018-07-24T20:47:51.578Z,3.87
2018-07-24T20:50:20.591Z,4.20
2018-07-24T20:52:49.574Z,3.63
2018-07-24T20:55:18.494Z,3.53
2018-07-24T20:57:48.951Z,3.70
2018-07-24T21:00:18.167Z,4.30
2018-07-24T21:02:47.066Z,4.13
2018-07-24T21:05:16.058Z,4.30
2018-07-24T21:07:44.990Z,3.93
2018-07-24T21:10:16.852Z,4.10
2018-07-24T21:12:46.875Z,4.27
2018-07-24T21:15:16.322Z,4.30
2018-07-24T21:17:45.287Z,4.43
2018-07-24T21:20:14.227Z,4.03
2018-07-24T21:22:43.180Z,3.90
2018-07-24T21:25:12.202Z,4.33
2018-07-24T21:27:41.071Z,4.20
2018-07-24T21:30:10.471Z,4.93
2018-07-24T21:32:39.452Z,4.10
2018-07-24T21:35:08.382Z,4.37
2018-07-24T21:37:37.330Z,4.03
2018-07-24T21:40:07.344Z,3.63
2018-07-24T21:42:36.480Z,4.40
2018-07-24T21:45:05.394Z,4.47
2018-07-24T21:47:34.282Z,4.47
2018-07-24T21:50:03.338Z,4.70
2018-07-24T21:52:32.235Z,4.23
2018-07-24T21:55:01.137Z,4.60
2018-07-24T21:57:30.068Z,4.53
2018-07-24T21:59:58.930Z,4.77
2018-07-24T22:02:27.950Z,4.30
2018-07-24T22:04:56.902Z,4.03
2018-07-24T22:07:25.811Z,4.37
2018-07-24T22:09:55.756Z,4.20
2018-07-24T22:12:25.196Z,4.30
2018-07-24T22:14:54.200Z,4.67
2018-07-24T22:17:24.126Z,4.77
2018-07-24T22:19:53.215Z,4.23
2018-07-24T22:22:23.137Z,4.23
2018-07-24T22:24:52.018Z,4.53
2018-07-24T22:27:21.061Z,4.20
2018-07-24T22:29:50.047Z,4.30
2018-07-24T22:32:20.058Z,4.33
2018-07-24T22:34:49.938Z,4.70
2018-07-24T22:37:18.854Z,4.63
2018-07-24T22:39:47.826Z,4.80
2018-07-24T22:42:16.718Z,4.73
2018-07-24T22:44:45.574Z,4.07
2018-07-24T22:47:14.447Z,5.03
2018-07-24T22:49:46.817Z,4.80
2018-07-24T22:52:15.699Z,4.67
2018-07-24T22:54:45.374Z,4.73
2018-07-24T22:57:14.241Z,4.53
2018-07-24T22:59:43.250Z,4.50
2018-07-24T23:02:12.135Z,3.90
2018-07-24T23:04:41.106Z,5.00
2018-07-24T23:07:10.062Z,4.67
2018-07-24T23:09:39.081Z,4.67
2018-07-24T23:12:08.066Z,4.40
2018-07-24T23:14:37.018Z,4.10
2018-07-24T23:17:06.094Z,4.33
2018-07-24T23:19:35.051Z,4.63
2018-07-24T23:22:03.966Z,4.73
2018-07-24T23:24:32.844Z,4.70
2018-07-24T23:27:01.732Z,4.70
2018-07-24T23:29:30.700Z,5.33
2018-07-24T23:31:59.778Z,4.97
2018-07-24T23:34:28.774Z,5.27
2018-07-24T23:36:57.726Z,4.73
2018-07-24T23:39:26.705Z,5.17
2018-07-24T23:41:55.700Z,5.17
2018-07-24T23:44:24.650Z,4.97
2018-07-24T23:46:53.576Z,4.60
2018-07-24T23:49:22.460Z,4.70
2018-07-24T23:51:52.052Z,5.13
2018-07-24T23:54:21.944Z,4.93
2018-07-24T23:56:50.910Z,5.33
2018-07-24T23:59:20.268Z,5.33
